sensor_id;sensor_type;location;lat;lon;timestamp;temperature;humidity
52899;DHT22;38763;53.096;6.062;2023-11-19T00:00:29;12.40;99.90
52899;DHT22;38763;53.096;6.062;2023-11-19T00:02:55;12.30;99.90
52899;DHT22;38763;53.096;6.062;2023-11-19T00:05:20;12.30;99.90
52899;DHT22;38763;53.096;6.062;2023-11-19T00:07:46;12.50;99.90
52899;DHT22;38763;53.096;6.062;2023-11-19T00:10:14;12.50;99.90
52899;DHT22;38763;53.096;6.062;2023-11-19T00:12:45;12.50;99.90
52899;DHT22;38763;53.096;6.062;2023-11-19T00:15:12;12.50;99.90
52899;DHT22;38763;53.096;6.062;2023-11-19T00:17:38;12.10;99.90
52899;DHT22;38763;53.096;6.062;2023-11-19T00:20:06;12.10;99.90
52899;DHT22;38763;53.096;6.062;2023-11-19T00:22:32;12.40;99.90
52899;DHT22;38763;53.096;6.062;2023-11-19T00:24:58;12.40;99.90
52899;DHT22;38763;53.096;6.062;2023-11-19T00:27:25;12.20;99.90
52899;DHT22;38763;53.096;6.062;2023-11-19T00:29:50;12.10;99.90
52899;DHT22;38763;53.096;6.062;2023-11-19T00:32:16;12.10;99.90
52899;DHT22;38763;53.096;6.062;2023-11-19T00:34:44;12.20;99.90
52899;DHT22;38763;53.096;6.062;2023-11-19T00:37:10;12.20;99.90
52899;DHT22;38763;53.096;6.062;2023-11-19T00:39:35;12.10;99.90
52899;DHT22;38763;53.096;6.062;2023-11-19T00:42:01;12.40;99.90
52899;DHT22;38763;53.096;6.062;2023-11-19T00:44:26;12.20;99.90
52899;DHT22;38763;53.096;6.062;2023-11-19T00:46:52;12.50;99.90
52899;DHT22;38763;53.096;6.062;2023-11-19T00:49:17;12.20;99.90
52899;DHT22;38763;53.096;6.062;2023-11-19T00:51:43;12.10;99.90
52899;DHT22;38763;53.096;6.062;2023-11-19T00:54:10;12.30;99.90
52899;DHT22;38763;53.096;6.062;2023-11-19T00:56:36;12.40;99.90
52899;DHT22;38763;53.096;6.062;2023-11-19T00:59:02;12.10;99.90
52899;DHT22;38763;53.096;6.062;2023-11-19T01:01:29;12.30;99.90
52899;DHT22;38763;53.096;6.062;2023-11-19T01:03:55;12.40;99.90
52899;DHT22;38763;53.096;6.062;2023-11-19T01:06:32;12.40;99.90
52899;DHT22;38763;53.096;6.062;2023-11-19T01:08:58;12.20;99.90
52899;DHT22;38763;53.096;6.062;2023-11-19T01:11:25;12.30;99.90
52899;DHT22;38763;53.096;6.062;2023-11-19T01:13:51;12.50;99.90
52899;DHT22;38763;53.096;6.062;2023-11-19T01:16:17;12.50;99.90
52899;DHT22;38763;53.096;6.062;2023-11-19T01:18:47;12.50;99.90
52899;DHT22;38763;53.096;6.062;2023-11-19T01:21:14;12.50;99.90
52899;DHT22;38763;53.096;6.062;2023-11-19T01:23:42;12.40;99.90
52899;DHT22;38763;53.096;6.062;2023-11-19T01:26:09;12.40;99.90
52899;DHT22;38763;53.096;6.062;2023-11-19T01:28:39;12.40;99.90
52899;DHT22;38763;53.096;6.062;2023-11-19T01:31:15;12.20;99.90
52899;DHT22;38763;53.096;6.062;2023-11-19T01:33:41;12.20;99.90
52899;DHT22;38763;53.096;6.062;2023-11-19T01:36:07;12.20;99.90
52899;DHT22;38763;53.096;6.062;2023-11-19T01:38:36;12.20;99.90
52899;DHT22;38763;53.096;6.062;2023-11-19T01:41:02;12.10;99.90
52899;DHT22;38763;53.096;6.062;2023-11-19T01:43:38;12.00;99.90
52899;DHT22;38763;53.096;6.062;2023-11-19T01:46:07;12.20;99.90
52899;DHT22;38763;53.096;6.062;2023-11-19T01:48:36;12.00;99.90
52899;DHT22;38763;53.096;6.062;2023-11-19T01:51:02;12.10;99.90
52899;DHT22;38763;53.096;6.062;2023-11-19T01:53:29;12.00;99.90
52899;DHT22;38763;53.096;6.062;2023-11-19T01:55:56;12.00;99.90
52899;DHT22;38763;53.096;6.062;2023-11-19T01:58:23;12.20;99.90
52899;DHT22;38763;53.096;6.062;2023-11-19T02:00:49;12.20;99.90
52899;DHT22;38763;53.096;6.062;2023-11-19T02:03:15;12.30;99.90
52899;DHT22;38763;53.096;6.062;2023-11-19T02:05:41;12.00;99.90
52899;DHT22;38763;53.096;6.062;2023-11-19T02:08:07;11.90;99.90
52899;DHT22;38763;53.096;6.062;2023-11-19T02:10:33;12.30;99.90
52899;DHT22;38763;53.096;6.062;2023-11-19T02:13:00;12.20;99.90
52899;DHT22;38763;53.096;6.062;2023-11-19T02:15:26;11.90;99.90
52899;DHT22;38763;53.096;6.062;2023-11-19T02:17:51;11.90;99.90
52899;DHT22;38763;53.096;6.062;2023-11-19T02:20:18;12.00;99.90
52899;DHT22;38763;53.096;6.062;2023-11-19T02:22:49;12.00;99.90
52899;DHT22;38763;53.096;6.062;2023-11-19T02:25:30;12.10;99.90
52899;DHT22;38763;53.096;6.062;2023-11-19T02:28:02;12.10;99.90
52899;DHT22;38763;53.096;6.062;2023-11-19T02:30:28;11.80;99.90
52899;DHT22;38763;53.096;6.062;2023-11-19T02:32:55;11.70;99.90
52899;DHT22;38763;53.096;6.062;2023-11-19T02:35:23;11.70;99.90
52899;DHT22;38763;53.096;6.062;2023-11-19T02:37:49;11.70;99.90
52899;DHT22;38763;53.096;6.062;2023-11-19T02:40:15;12.00;99.90
52899;DHT22;38763;53.096;6.062;2023-11-19T02:42:40;11.80;99.90
52899;DHT22;38763;53.096;6.062;2023-11-19T02:45:07;11.80;99.90
52899;DHT22;38763;53.096;6.062;2023-11-19T02:47:33;11.90;99.90
52899;DHT22;38763;53.096;6.062;2023-11-19T02:49:59;11.70;99.90
52899;DHT22;38763;53.096;6.062;2023-11-19T02:52:25;11.90;99.90
52899;DHT22;38763;53.096;6.062;2023-11-19T02:54:51;11.90;99.90
52899;DHT22;38763;53.096;6.062;2023-11-19T02:57:17;11.90;99.90
52899;DHT22;38763;53.096;6.062;2023-11-19T02:59:45;11.70;99.90
52899;DHT22;38763;53.096;6.062;2023-11-19T03:02:10;11.80;99.90
52899;DHT22;38763;53.096;6.062;2023-11-19T03:04:41;11.90;99.90
52899;DHT22;38763;53.096;6.062;2023-11-19T03:07:09;11.70;99.90
52899;DHT22;38763;53.096;6.062;2023-11-19T03:09:34;11.90;99.90
52899;DHT22;38763;53.096;6.062;2023-11-19T03:12:01;11.80;99.90
52899;DHT22;38763;53.096;6.062;2023-11-19T03:14:27;12.00;99.90
52899;DHT22;38763;53.096;6.062;2023-11-19T03:16:53;11.90;99.90
52899;DHT22;38763;53.096;6.062;2023-11-19T03:19:19;11.70;99.90
52899;DHT22;38763;53.096;6.062;2023-11-19T03:21:45;11.80;99.90
52899;DHT22;38763;53.096;6.062;2023-11-19T03:24:13;11.70;99.90
52899;DHT22;38763;53.096;6.062;2023-11-19T03:26:38;11.90;99.90
52899;DHT22;38763;53.096;6.062;2023-11-19T03:29:04;11.80;99.90
52899;DHT22;38763;53.096;6.062;2023-11-19T03:31:30;11.90;99.90
52899;DHT22;38763;53.096;6.062;2023-11-19T03:33:55;11.90;99.90
52899;DHT22;38763;53.096;6.062;2023-11-19T03:36:21;11.80;99.90
52899;DHT22;38763;53.096;6.062;2023-11-19T03:38:47;12.10;99.90
52899;DHT22;38763;53.096;6.062;2023-11-19T03:41:14;12.10;99.90
52899;DHT22;38763;53.096;6.062;2023-11-19T03:43:40;11.90;99.90
52899;DHT22;38763;53.096;6.062;2023-11-19T03:46:19;12.10;99.90
52899;DHT22;38763;53.096;6.062;2023-11-19T03:48:46;11.90;99.90
52899;DHT22;38763;53.096;6.062;2023-11-19T03:51:12;12.10;99.90
52899;DHT22;38763;53.096;6.062;2023-11-19T03:53:42;11.80;99.90
52899;DHT22;38763;53.096;6.062;2023-11-19T03:56:09;12.10;99.90
52899;DHT22;38763;53.096;6.062;2023-11-19T03:58:35;12.10;99.90
52899;DHT22;38763;53.096;6.062;2023-11-19T04:01:01;11.80;99.90
52899;DHT22;38763;53.096;6.062;2023-11-19T04:03:28;11.70;99.90
52899;DHT22;38763;53.096;6.062;2023-11-19T04:05:53;12.00;99.90
52899;DHT22;38763;53.096;6.062;2023-11-19T04:08:19;12.00;99.90
52899;DHT22;38763;53.096;6.062;2023-11-19T04:10:45;11.80;99.90
52899;DHT22;38763;53.096;6.062;2023-11-19T04:13:10;11.90;99.90
52899;DHT22;38763;53.096;6.062;2023-11-19T04:15:36;11.60;99.90
52899;DHT22;38763;53.096;6.062;2023-11-19T04:18:01;11.60;99.90
52899;DHT22;38763;53.096;6.062;2023-11-19T04:20:27;11.50;99.90
52899;DHT22;38763;53.096;6.062;2023-11-19T04:22:53;11.80;99.90
52899;DHT22;38763;53.096;6.062;2023-11-19T04:25:19;11.90;99.90
52899;DHT22;38763;53.096;6.062;2023-11-19T04:27:45;11.70;99.90
52899;DHT22;38763;53.096;6.062;2023-11-19T04:30:11;11.60;99.90
52899;DHT22;38763;53.096;6.062;2023-11-19T04:32:37;11.80;99.90
52899;DHT22;38763;53.096;6.062;2023-11-19T04:35:03;11.70;99.90
52899;DHT22;38763;53.096;6.062;2023-11-19T04:37:29;11.80;99.90
52899;DHT22;38763;53.096;6.062;2023-11-19T04:39:54;11.70;99.90
52899;DHT22;38763;53.096;6.062;2023-11-19T04:42:23;11.50;99.90
52899;DHT22;38763;53.096;6.062;2023-11-19T04:44:49;11.60;99.90
52899;DHT22;38763;53.096;6.062;2023-11-19T04:47:15;11.70;99.90
52899;DHT22;38763;53.096;6.062;2023-11-19T04:49:41;11.60;99.90
52899;DHT22;38763;53.096;6.062;2023-11-19T04:52:09;11.60;99.90
52899;DHT22;38763;53.096;6.062;2023-11-19T04:54:41;11.80;99.90
52899;DHT22;38763;53.096;6.062;2023-11-19T04:57:07;11.70;99.90
52899;DHT22;38763;53.096;6.062;2023-11-19T04:59:35;11.60;99.90
52899;DHT22;38763;53.096;6.062;2023-11-19T05:02:00;11.60;99.90
52899;DHT22;38763;53.096;6.062;2023-11-19T05:04:26;11.60;99.90
52899;DHT22;38763;53.096;6.062;2023-11-19T05:06:51;11.70;99.90
52899;DHT22;38763;53.096;6.062;2023-11-19T05:09:17;11.80;99.90
52899;DHT22;38763;53.096;6.062;2023-11-19T05:11:43;11.80;99.90
52899;DHT22;38763;53.096;6.062;2023-11-19T05:14:09;11.80;99.90
52899;DHT22;38763;53.096;6.062;2023-11-19T05:16:34;11.90;99.90
52899;DHT22;38763;53.096;6.062;2023-11-19T05:19:00;11.60;99.90
52899;DHT22;38763;53.096;6.062;2023-11-19T05:21:26;11.80;99.90
52899;DHT22;38763;53.096;6.062;2023-11-19T05:23:52;11.60;99.90
52899;DHT22;38763;53.096;6.062;2023-11-19T05:26:18;11.80;99.90
52899;DHT22;38763;53.096;6.062;2023-11-19T05:28:45;11.80;99.90
52899;DHT22;38763;53.096;6.062;2023-11-19T05:31:10;11.60;99.90
52899;DHT22;38763;53.096;6.062;2023-11-19T05:33:36;11.50;99.90
52899;DHT22;38763;53.096;6.062;2023-11-19T05:36:02;11.50;99.90
52899;DHT22;38763;53.096;6.062;2023-11-19T05:38:29;11.50;99.90
52899;DHT22;38763;53.096;6.062;2023-11-19T05:40:55;11.50;99.90
52899;DHT22;38763;53.096;6.062;2023-11-19T05:43:20;11.60;99.90
52899;DHT22;38763;53.096;6.062;2023-11-19T05:45:46;11.50;99.90
52899;DHT22;38763;53.096;6.062;2023-11-19T05:48:12;11.50;99.90
52899;DHT22;38763;53.096;6.062;2023-11-19T05:50:38;11.50;99.90
52899;DHT22;38763;53.096;6.062;2023-11-19T05:53:04;11.50;99.90
52899;DHT22;38763;53.096;6.062;2023-11-19T05:55:36;11.50;99.90
52899;DHT22;38763;53.096;6.062;2023-11-19T05:58:03;11.50;99.90
52899;DHT22;38763;53.096;6.062;2023-11-19T06:00:29;11.60;99.90
52899;DHT22;38763;53.096;6.062;2023-11-19T06:02:56;11.50;99.90
52899;DHT22;38763;53.096;6.062;2023-11-19T06:05:21;11.60;99.90
52899;DHT22;38763;53.096;6.062;2023-11-19T06:07:47;11.50;99.90
52899;DHT22;38763;53.096;6.062;2023-11-19T06:10:13;11.40;99.90
52899;DHT22;38763;53.096;6.062;2023-11-19T06:12:41;11.40;99.90
52899;DHT22;38763;53.096;6.062;2023-11-19T06:15:08;11.40;99.90
52899;DHT22;38763;53.096;6.062;2023-11-19T06:17:34;11.50;99.90
52899;DHT22;38763;53.096;6.062;2023-11-19T06:20:00;11.40;99.90
52899;DHT22;38763;53.096;6.062;2023-11-19T06:22:25;11.40;99.90
52899;DHT22;38763;53.096;6.062;2023-11-19T06:24:51;11.30;99.90
52899;DHT22;38763;53.096;6.062;2023-11-19T06:27:16;11.40;99.90
52899;DHT22;38763;53.096;6.062;2023-11-19T06:29:42;11.40;99.90
52899;DHT22;38763;53.096;6.062;2023-11-19T06:32:07;11.30;99.90
52899;DHT22;38763;53.096;6.062;2023-11-19T06:34:34;11.40;99.90
52899;DHT22;38763;53.096;6.062;2023-11-19T06:36:59;11.50;99.90
52899;DHT22;38763;53.096;6.062;2023-11-19T06:39:25;11.40;99.90
52899;DHT22;38763;53.096;6.062;2023-11-19T06:41:52;11.40;99.90
52899;DHT22;38763;53.096;6.062;2023-11-19T06:44:17;11.50;99.90
52899;DHT22;38763;53.096;6.062;2023-11-19T06:46:43;11.40;99.90
52899;DHT22;38763;53.096;6.062;2023-11-19T06:49:09;11.40;99.90
52899;DHT22;38763;53.096;6.062;2023-11-19T06:51:34;11.40;99.90
52899;DHT22;38763;53.096;6.062;2023-11-19T06:54:00;11.20;99.90
52899;DHT22;38763;53.096;6.062;2023-11-19T06:56:26;11.40;99.90
52899;DHT22;38763;53.096;6.062;2023-11-19T06:58:52;11.30;99.90
52899;DHT22;38763;53.096;6.062;2023-11-19T07:01:19;11.30;99.90
52899;DHT22;38763;53.096;6.062;2023-11-19T07:03:48;11.30;99.90
52899;DHT22;38763;53.096;6.062;2023-11-19T07:06:14;11.30;99.90
52899;DHT22;38763;53.096;6.062;2023-11-19T07:08:43;11.30;99.90
52899;DHT22;38763;53.096;6.062;2023-11-19T07:11:12;11.30;99.90
52899;DHT22;38763;53.096;6.062;2023-11-19T07:13:39;11.20;99.90
52899;DHT22;38763;53.096;6.062;2023-11-19T07:16:07;11.30;99.90
52899;DHT22;38763;53.096;6.062;2023-11-19T07:18:35;11.30;99.90
52899;DHT22;38763;53.096;6.062;2023-11-19T07:21:01;11.30;99.90
52899;DHT22;38763;53.096;6.062;2023-11-19T07:23:28;11.20;99.90
52899;DHT22;38763;53.096;6.062;2023-11-19T07:25:54;11.30;99.90
52899;DHT22;38763;53.096;6.062;2023-11-19T07:28:19;11.30;99.90
52899;DHT22;38763;53.096;6.062;2023-11-19T07:30:45;11.30;99.90
52899;DHT22;38763;53.096;6.062;2023-11-19T07:33:11;11.30;99.90
52899;DHT22;38763;53.096;6.062;2023-11-19T07:35:39;11.20;99.90
52899;DHT22;38763;53.096;6.062;2023-11-19T07:38:04;11.20;99.90
52899;DHT22;38763;53.096;6.062;2023-11-19T07:40:30;11.20;99.90
52899;DHT22;38763;53.096;6.062;2023-11-19T07:42:56;11.20;99.90
52899;DHT22;38763;53.096;6.062;2023-11-19T07:45:21;11.20;99.90
52899;DHT22;38763;53.096;6.062;2023-11-19T07:47:47;11.10;99.90
52899;DHT22;38763;53.096;6.062;2023-11-19T07:50:13;11.10;99.90
52899;DHT22;38763;53.096;6.062;2023-11-19T07:52:39;11.20;99.90
52899;DHT22;38763;53.096;6.062;2023-11-19T07:55:05;11.20;99.90
52899;DHT22;38763;53.096;6.062;2023-11-19T07:57:31;11.20;99.90
52899;DHT22;38763;53.096;6.062;2023-11-19T07:59:59;11.20;99.90
52899;DHT22;38763;53.096;6.062;2023-11-19T08:02:26;11.30;99.90
52899;DHT22;38763;53.096;6.062;2023-11-19T08:04:52;11.20;99.90
52899;DHT22;38763;53.096;6.062;2023-11-19T08:07:23;11.20;99.90
52899;DHT22;38763;53.096;6.062;2023-11-19T08:09:48;11.20;99.90
52899;DHT22;38763;53.096;6.062;2023-11-19T08:12:14;11.30;99.90
52899;DHT22;38763;53.096;6.062;2023-11-19T08:14:41;11.40;99.90
52899;DHT22;38763;53.096;6.062;2023-11-19T08:17:07;11.30;99.90
52899;DHT22;38763;53.096;6.062;2023-11-19T08:19:32;11.30;99.90
52899;DHT22;38763;53.096;6.062;2023-11-19T08:21:58;11.30;99.90
52899;DHT22;38763;53.096;6.062;2023-11-19T08:24:24;11.20;99.90
52899;DHT22;38763;53.096;6.062;2023-11-19T08:26:49;11.30;99.90
52899;DHT22;38763;53.096;6.062;2023-11-19T08:29:15;11.30;99.90
52899;DHT22;38763;53.096;6.062;2023-11-19T08:31:41;11.30;99.90
52899;DHT22;38763;53.096;6.062;2023-11-19T08:34:07;11.20;99.90
52899;DHT22;38763;53.096;6.062;2023-11-19T08:36:35;11.30;99.90
52899;DHT22;38763;53.096;6.062;2023-11-19T08:39:01;11.30;99.90
52899;DHT22;38763;53.096;6.062;2023-11-19T08:41:27;11.30;99.90
52899;DHT22;38763;53.096;6.062;2023-11-19T08:43:52;11.30;99.90
52899;DHT22;38763;53.096;6.062;2023-11-19T08:46:18;11.20;99.90
52899;DHT22;38763;53.096;6.062;2023-11-19T08:48:44;11.30;99.90
52899;DHT22;38763;53.096;6.062;2023-11-19T08:51:10;11.30;99.90
52899;DHT22;38763;53.096;6.062;2023-11-19T08:53:35;11.40;99.90
52899;DHT22;38763;53.096;6.062;2023-11-19T08:56:01;11.40;99.90
52899;DHT22;38763;53.096;6.062;2023-11-19T08:58:28;11.50;99.90
52899;DHT22;38763;53.096;6.062;2023-11-19T09:00:54;11.50;99.90
52899;DHT22;38763;53.096;6.062;2023-11-19T09:03:20;11.60;99.90
52899;DHT22;38763;53.096;6.062;2023-11-19T09:05:46;11.60;99.90
52899;DHT22;38763;53.096;6.062;2023-11-19T09:08:12;11.70;99.90
52899;DHT22;38763;53.096;6.062;2023-11-19T09:10:37;11.80;99.90
52899;DHT22;38763;53.096;6.062;2023-11-19T09:13:03;11.80;99.90
52899;DHT22;38763;53.096;6.062;2023-11-19T09:15:29;11.90;99.90
52899;DHT22;38763;53.096;6.062;2023-11-19T09:17:55;12.00;99.90
52899;DHT22;38763;53.096;6.062;2023-11-19T09:20:21;12.00;99.90
52899;DHT22;38763;53.096;6.062;2023-11-19T09:22:47;12.00;99.90
52899;DHT22;38763;53.096;6.062;2023-11-19T09:25:12;12.10;99.90
52899;DHT22;38763;53.096;6.062;2023-11-19T09:27:42;11.90;99.90
52899;DHT22;38763;53.096;6.062;2023-11-19T09:30:09;11.90;99.90
52899;DHT22;38763;53.096;6.062;2023-11-19T09:32:34;12.00;99.90
52899;DHT22;38763;53.096;6.062;2023-11-19T09:35:00;12.00;99.90
52899;DHT22;38763;53.096;6.062;2023-11-19T09:37:26;12.00;99.90
52899;DHT22;38763;53.096;6.062;2023-11-19T09:39:52;12.00;99.90
52899;DHT22;38763;53.096;6.062;2023-11-19T09:42:19;12.00;99.90
52899;DHT22;38763;53.096;6.062;2023-11-19T09:44:45;12.10;99.90
52899;DHT22;38763;53.096;6.062;2023-11-19T09:47:14;12.10;99.90
52899;DHT22;38763;53.096;6.062;2023-11-19T09:49:41;12.10;99.90
52899;DHT22;38763;53.096;6.062;2023-11-19T09:52:07;12.10;99.90
52899;DHT22;38763;53.096;6.062;2023-11-19T09:54:33;12.10;99.90
52899;DHT22;38763;53.096;6.062;2023-11-19T09:56:59;12.10;99.90
52899;DHT22;38763;53.096;6.062;2023-11-19T09:59:31;12.10;99.90
52899;DHT22;38763;53.096;6.062;2023-11-19T10:01:59;12.00;99.90
52899;DHT22;38763;53.096;6.062;2023-11-19T10:04:25;12.00;99.90
52899;DHT22;38763;53.096;6.062;2023-11-19T10:06:55;11.90;99.90
52899;DHT22;38763;53.096;6.062;2023-11-19T10:09:21;11.90;99.90
52899;DHT22;38763;53.096;6.062;2023-11-19T10:11:46;11.90;99.90
52899;DHT22;38763;53.096;6.062;2023-11-19T10:14:13;12.00;99.90
52899;DHT22;38763;53.096;6.062;2023-11-19T10:16:40;12.00;99.90
52899;DHT22;38763;53.096;6.062;2023-11-19T10:19:06;12.00;99.90
52899;DHT22;38763;53.096;6.062;2023-11-19T10:21:35;12.00;99.90
52899;DHT22;38763;53.096;6.062;2023-11-19T10:24:00;12.00;99.90
52899;DHT22;38763;53.096;6.062;2023-11-19T10:26:27;12.10;99.90
52899;DHT22;38763;53.096;6.062;2023-11-19T10:28:53;12.00;99.90
52899;DHT22;38763;53.096;6.062;2023-11-19T10:31:20;12.00;99.90
52899;DHT22;38763;53.096;6.062;2023-11-19T10:33:50;12.10;99.90
52899;DHT22;38763;53.096;6.062;2023-11-19T10:36:17;12.10;99.90
52899;DHT22;38763;53.096;6.062;2023-11-19T10:38:56;12.10;99.90
52899;DHT22;38763;53.096;6.062;2023-11-19T10:41:32;12.10;99.90
52899;DHT22;38763;53.096;6.062;2023-11-19T10:43:58;12.10;99.90
52899;DHT22;38763;53.096;6.062;2023-11-19T10:46:39;12.20;99.90
52899;DHT22;38763;53.096;6.062;2023-11-19T10:49:06;12.20;99.90
52899;DHT22;38763;53.096;6.062;2023-11-19T10:51:32;12.10;99.90
52899;DHT22;38763;53.096;6.062;2023-11-19T10:54:05;12.30;99.90
52899;DHT22;38763;53.096;6.062;2023-11-19T10:56:32;12.40;99.90
52899;DHT22;38763;53.096;6.062;2023-11-19T10:58:59;12.50;99.90
52899;DHT22;38763;53.096;6.062;2023-11-19T11:01:29;12.50;99.90
52899;DHT22;38763;53.096;6.062;2023-11-19T11:03:59;12.50;99.90
52899;DHT22;38763;53.096;6.062;2023-11-19T11:06:27;12.50;99.90
52899;DHT22;38763;53.096;6.062;2023-11-19T11:08:53;12.50;99.90
52899;DHT22;38763;53.096;6.062;2023-11-19T11:11:19;12.50;99.90
52899;DHT22;38763;53.096;6.062;2023-11-19T11:13:50;12.50;99.90
52899;DHT22;38763;53.096;6.062;2023-11-19T11:16:19;12.50;99.90
52899;DHT22;38763;53.096;6.062;2023-11-19T11:18:46;12.50;99.90
52899;DHT22;38763;53.096;6.062;2023-11-19T11:21:17;12.60;99.90
52899;DHT22;38763;53.096;6.062;2023-11-19T11:24:16;12.50;99.90
52899;DHT22;38763;53.096;6.062;2023-11-19T11:27:33;12.60;99.90
52899;DHT22;38763;53.096;6.062;2023-11-19T11:35:55;12.50;99.90
52899;DHT22;38763;53.096;6.062;2023-11-19T11:38:22;12.60;99.90
52899;DHT22;38763;53.096;6.062;2023-11-19T11:41:21;12.60;99.90
52899;DHT22;38763;53.096;6.062;2023-11-19T11:43:54;12.60;99.90
52899;DHT22;38763;53.096;6.062;2023-11-19T11:49:06;12.60;99.90
52899;DHT22;38763;53.096;6.062;2023-11-19T11:51:59;12.60;99.90
52899;DHT22;38763;53.096;6.062;2023-11-19T11:54:28;12.60;99.90
52899;DHT22;38763;53.096;6.062;2023-11-19T11:59:36;12.60;99.90
52899;DHT22;38763;53.096;6.062;2023-11-19T12:02:03;12.60;99.90
52899;DHT22;38763;53.096;6.062;2023-11-19T12:04:29;12.60;99.90
52899;DHT22;38763;53.096;6.062;2023-11-19T12:09:33;12.70;99.90
52899;DHT22;38763;53.096;6.062;2023-11-19T12:12:28;12.60;99.90
52899;DHT22;38763;53.096;6.062;2023-11-19T12:15:06;12.60;99.90
52899;DHT22;38763;53.096;6.062;2023-11-19T12:20:01;12.80;99.90
52899;DHT22;38763;53.096;6.062;2023-11-19T12:22:27;12.80;99.90
52899;DHT22;38763;53.096;6.062;2023-11-19T12:24:55;12.80;99.90
52899;DHT22;38763;53.096;6.062;2023-11-19T12:27:21;12.90;99.90
52899;DHT22;38763;53.096;6.062;2023-11-19T12:29:48;12.90;99.90
52899;DHT22;38763;53.096;6.062;2023-11-19T12:32:14;12.90;99.90
52899;DHT22;38763;53.096;6.062;2023-11-19T12:34:39;13.00;99.90
52899;DHT22;38763;53.096;6.062;2023-11-19T12:37:05;13.10;99.90
52899;DHT22;38763;53.096;6.062;2023-11-19T12:39:31;13.20;99.90
52899;DHT22;38763;53.096;6.062;2023-11-19T12:41:57;13.10;99.90
52899;DHT22;38763;53.096;6.062;2023-11-19T12:44:28;13.10;99.90
52899;DHT22;38763;53.096;6.062;2023-11-19T12:47:03;13.10;99.90
52899;DHT22;38763;53.096;6.062;2023-11-19T12:49:29;13.20;99.90
52899;DHT22;38763;53.096;6.062;2023-11-19T12:51:55;13.10;99.90
52899;DHT22;38763;53.096;6.062;2023-11-19T12:54:35;13.10;99.90
52899;DHT22;38763;53.096;6.062;2023-11-19T12:57:01;13.10;99.90
52899;DHT22;38763;53.096;6.062;2023-11-19T12:59:27;13.10;99.90
52899;DHT22;38763;53.096;6.062;2023-11-19T13:01:57;13.10;99.90
52899;DHT22;38763;53.096;6.062;2023-11-19T13:04:27;13.10;99.90
52899;DHT22;38763;53.096;6.062;2023-11-19T13:06:52;12.90;99.90
52899;DHT22;38763;53.096;6.062;2023-11-19T13:09:27;13.00;99.90
52899;DHT22;38763;53.096;6.062;2023-11-19T13:11:54;12.90;99.90
52899;DHT22;38763;53.096;6.062;2023-11-19T13:14:21;12.90;99.90
52899;DHT22;38763;53.096;6.062;2023-11-19T13:16:46;12.90;99.90
52899;DHT22;38763;53.096;6.062;2023-11-19T13:19:13;12.80;99.90
52899;DHT22;38763;53.096;6.062;2023-11-19T13:21:39;12.90;99.90
52899;DHT22;38763;53.096;6.062;2023-11-19T13:24:08;12.80;99.90
52899;DHT22;38763;53.096;6.062;2023-11-19T13:26:34;12.70;99.90
52899;DHT22;38763;53.096;6.062;2023-11-19T13:29:03;12.80;99.90
52899;DHT22;38763;53.096;6.062;2023-11-19T13:31:29;12.70;99.90
52899;DHT22;38763;53.096;6.062;2023-11-19T13:33:55;12.70;99.90
52899;DHT22;38763;53.096;6.062;2023-11-19T13:36:22;12.60;99.90
52899;DHT22;38763;53.096;6.062;2023-11-19T13:38:47;12.60;99.90
52899;DHT22;38763;53.096;6.062;2023-11-19T13:41:13;12.70;99.90
52899;DHT22;38763;53.096;6.062;2023-11-19T13:43:39;12.60;99.90
52899;DHT22;38763;53.096;6.062;2023-11-19T13:46:05;12.50;99.90
52899;DHT22;38763;53.096;6.062;2023-11-19T13:48:31;12.70;99.90
52899;DHT22;38763;53.096;6.062;2023-11-19T13:50:57;12.70;99.90
52899;DHT22;38763;53.096;6.062;2023-11-19T13:53:23;12.60;99.90
52899;DHT22;38763;53.096;6.062;2023-11-19T13:55:49;12.70;99.90
52899;DHT22;38763;53.096;6.062;2023-11-19T13:58:15;12.60;99.90
52899;DHT22;38763;53.096;6.062;2023-11-19T14:00:42;12.60;99.90
52899;DHT22;38763;53.096;6.062;2023-11-19T14:03:09;12.50;99.90
52899;DHT22;38763;53.096;6.062;2023-11-19T14:05:38;12.60;99.90
52899;DHT22;38763;53.096;6.062;2023-11-19T14:08:04;12.60;99.90
52899;DHT22;38763;53.096;6.062;2023-11-19T14:10:37;12.50;99.90
52899;DHT22;38763;53.096;6.062;2023-11-19T14:13:04;12.50;99.90
52899;DHT22;38763;53.096;6.062;2023-11-19T14:15:30;12.40;99.90
52899;DHT22;38763;53.096;6.062;2023-11-19T14:17:55;12.40;99.90
52899;DHT22;38763;53.096;6.062;2023-11-19T14:20:21;12.40;99.90
52899;DHT22;38763;53.096;6.062;2023-11-19T14:22:47;12.40;99.90
52899;DHT22;38763;53.096;6.062;2023-11-19T14:25:14;12.40;99.90
52899;DHT22;38763;53.096;6.062;2023-11-19T14:27:41;12.30;99.90
52899;DHT22;38763;53.096;6.062;2023-11-19T14:30:08;12.30;99.90
52899;DHT22;38763;53.096;6.062;2023-11-19T14:32:36;12.30;99.90
52899;DHT22;38763;53.096;6.062;2023-11-19T14:35:03;12.30;99.90
52899;DHT22;38763;53.096;6.062;2023-11-19T14:37:29;12.30;99.90
52899;DHT22;38763;53.096;6.062;2023-11-19T14:39:56;12.30;99.90
52899;DHT22;38763;53.096;6.062;2023-11-19T14:42:23;12.30;99.90
52899;DHT22;38763;53.096;6.062;2023-11-19T14:44:51;12.30;99.90
52899;DHT22;38763;53.096;6.062;2023-11-19T14:47:18;12.40;99.90
52899;DHT22;38763;53.096;6.062;2023-11-19T14:49:44;12.30;99.90
52899;DHT22;38763;53.096;6.062;2023-11-19T14:52:10;12.30;99.90
52899;DHT22;38763;53.096;6.062;2023-11-19T14:54:36;12.30;99.90
52899;DHT22;38763;53.096;6.062;2023-11-19T14:57:04;12.20;99.90
52899;DHT22;38763;53.096;6.062;2023-11-19T14:59:29;12.20;99.90
52899;DHT22;38763;53.096;6.062;2023-11-19T15:01:55;12.20;99.90
52899;DHT22;38763;53.096;6.062;2023-11-19T15:04:21;12.10;99.90
52899;DHT22;38763;53.096;6.062;2023-11-19T15:06:46;12.00;99.90
52899;DHT22;38763;53.096;6.062;2023-11-19T15:09:12;12.10;99.90
52899;DHT22;38763;53.096;6.062;2023-11-19T15:11:43;12.20;99.90
52899;DHT22;38763;53.096;6.062;2023-11-19T15:14:14;12.10;99.90
52899;DHT22;38763;53.096;6.062;2023-11-19T15:16:42;12.10;99.90
52899;DHT22;38763;53.096;6.062;2023-11-19T15:19:09;12.10;99.90
52899;DHT22;38763;53.096;6.062;2023-11-19T15:21:35;12.10;99.90
52899;DHT22;38763;53.096;6.062;2023-11-19T15:24:01;12.00;99.90
52899;DHT22;38763;53.096;6.062;2023-11-19T15:26:30;12.00;99.90
52899;DHT22;38763;53.096;6.062;2023-11-19T15:28:55;11.90;99.90
52899;DHT22;38763;53.096;6.062;2023-11-19T15:31:23;11.80;99.90
52899;DHT22;38763;53.096;6.062;2023-11-19T15:33:48;11.80;99.90
52899;DHT22;38763;53.096;6.062;2023-11-19T15:36:14;11.70;99.90
52899;DHT22;38763;53.096;6.062;2023-11-19T15:38:40;11.60;99.90
52899;DHT22;38763;53.096;6.062;2023-11-19T15:41:06;11.60;99.90
52899;DHT22;38763;53.096;6.062;2023-11-19T15:43:33;11.50;99.90
52899;DHT22;38763;53.096;6.062;2023-11-19T15:45:58;11.60;99.90